createdAt,value
2023-08-14T00:01:39.163Z,22.58
2023-08-14T00:04:41.783Z,22.59
2023-08-14T00:07:43.949Z,22.63
2023-08-14T00:10:46.491Z,22.61
2023-08-14T00:13:49.486Z,22.61
2023-08-14T00:16:51.638Z,22.57
2023-08-14T00:19:54.036Z,22.50
2023-08-14T00:22:56.322Z,22.47
2023-08-14T00:25:58.611Z,22.42
2023-08-14T00:29:00.913Z,22.35
2023-08-14T00:32:03.308Z,22.29
2023-08-14T00:35:06.189Z,22.26
2023-08-14T00:38:08.467Z,22.21
2023-08-14T00:41:10.810Z,22.20
2023-08-14T00:44:13.887Z,22.20
2023-08-14T00:47:16.315Z,22.18
2023-08-14T00:50:19.856Z,22.13
2023-08-14T00:53:23.952Z,22.11
2023-08-14T00:56:29.288Z,22.08
2023-08-14T00:59:33.604Z,22.08
2023-08-14T01:02:36.168Z,22.09
2023-08-14T01:05:39.845Z,22.06
2023-08-14T01:08:42.743Z,22.01
2023-08-14T01:11:55.940Z,21.98
2023-08-14T01:15:03.534Z,21.84
2023-08-14T01:18:06.062Z,21.81
2023-08-14T01:21:12.458Z,21.80
2023-08-14T01:24:23.545Z,21.82
2023-08-14T01:27:26.039Z,21.84
2023-08-14T01:30:28.720Z,21.87
2023-08-14T01:33:31.100Z,21.86
2023-08-14T01:36:41.075Z,21.77
2023-08-14T01:39:48.500Z,21.73
2023-08-14T01:42:55.053Z,21.68
2023-08-14T01:45:58.065Z,21.68
2023-08-14T01:49:00.630Z,21.70
2023-08-14T01:52:03.490Z,21.69
2023-08-14T01:55:06.292Z,21.63
2023-08-14T01:58:08.573Z,21.61
2023-08-14T02:01:11.404Z,21.57
2023-08-14T02:04:13.583Z,21.56
2023-08-14T02:07:15.763Z,21.55
2023-08-14T02:10:18.166Z,21.53
2023-08-14T02:13:20.443Z,21.50
2023-08-14T02:16:22.889Z,21.45
2023-08-14T02:19:25.207Z,21.42
2023-08-14T02:22:27.579Z,21.42
2023-08-14T02:25:29.958Z,21.40
2023-08-14T02:28:32.293Z,21.37
2023-08-14T02:31:34.583Z,21.37
2023-08-14T02:34:46.186Z,21.35
2023-08-14T02:37:48.444Z,21.29
2023-08-14T02:40:51.729Z,21.27
2023-08-14T02:43:54.418Z,21.22
2023-08-14T02:46:57.868Z,21.23
2023-08-14T02:50:00.155Z,21.18
2023-08-14T02:53:02.562Z,21.20
2023-08-14T02:56:04.960Z,21.17
2023-08-14T02:59:07.360Z,21.17
2023-08-14T03:02:09.771Z,21.19
2023-08-14T03:05:12.095Z,21.19
2023-08-14T03:08:14.371Z,21.15
2023-08-14T03:11:16.762Z,21.10
2023-08-14T03:14:19.061Z,21.11
2023-08-14T03:17:21.515Z,21.08
2023-08-14T03:20:23.796Z,21.08
2023-08-14T03:23:27.052Z,21.05
2023-08-14T03:26:29.320Z,21.01
2023-08-14T03:29:32.745Z,21.01
2023-08-14T03:32:35.298Z,21.03
2023-08-14T03:35:39.832Z,21.00
2023-08-14T03:38:42.633Z,20.98
2023-08-14T03:41:45.830Z,20.97
2023-08-14T03:44:51.467Z,20.96
2023-08-14T03:47:54.118Z,20.94
2023-08-14T03:50:56.398Z,21.00
2023-08-14T03:53:58.696Z,21.07
2023-08-14T03:57:01.075Z,21.15
2023-08-14T04:00:04.182Z,21.20
2023-08-14T04:03:15.040Z,21.26
2023-08-14T04:06:17.286Z,21.30
2023-08-14T04:09:19.621Z,21.34
2023-08-14T04:12:21.888Z,21.40
2023-08-14T04:15:24.443Z,21.50
2023-08-14T04:18:27.840Z,21.51
2023-08-14T04:21:30.083Z,21.57
2023-08-14T04:24:32.317Z,21.67
2023-08-14T04:27:38.702Z,21.77
2023-08-14T04:30:41.134Z,21.90
2023-08-14T04:33:43.493Z,22.02
2023-08-14T04:36:45.950Z,22.12
2023-08-14T04:39:49.369Z,22.21
2023-08-14T04:42:51.705Z,22.27
2023-08-14T04:45:54.067Z,22.37
2023-08-14T04:48:56.354Z,22.52
2023-08-14T04:52:00.126Z,22.67
2023-08-14T04:55:02.546Z,22.78
2023-08-14T04:58:09.535Z,22.89
2023-08-14T05:01:12.768Z,23.05
2023-08-14T05:04:16.283Z,23.16
2023-08-14T05:07:18.562Z,23.33
2023-08-14T05:10:20.746Z,23.48
2023-08-14T05:13:23.232Z,23.61
2023-08-14T05:16:26.359Z,23.76
2023-08-14T05:19:28.821Z,23.94
2023-08-14T05:22:31.179Z,24.04
2023-08-14T05:25:33.524Z,24.24
2023-08-14T05:28:35.905Z,24.47
2023-08-14T05:31:38.365Z,24.67
2023-08-14T05:34:40.594Z,24.87
2023-08-14T05:37:43.097Z,25.09
2023-08-14T05:40:45.454Z,25.29
2023-08-14T05:43:47.827Z,25.48
2023-08-14T05:46:50.216Z,25.67
2023-08-14T05:49:52.469Z,25.90
2023-08-14T05:53:00.376Z,26.10
2023-08-14T05:56:02.675Z,26.27
2023-08-14T05:59:04.912Z,26.43
2023-08-14T06:02:07.148Z,26.48
2023-08-14T06:05:10.067Z,26.60
2023-08-14T06:08:12.384Z,26.71
2023-08-14T06:11:14.536Z,26.80
2023-08-14T06:14:17.892Z,26.91
2023-08-14T06:17:20.185Z,27.23
2023-08-14T06:20:22.652Z,27.48
2023-08-14T06:23:24.955Z,27.71
2023-08-14T06:26:27.362Z,27.85
2023-08-14T06:29:29.586Z,27.96
2023-08-14T06:32:31.899Z,28.27
2023-08-14T06:35:34.079Z,28.53
2023-08-14T06:38:36.486Z,28.90
2023-08-14T06:41:38.796Z,29.28
2023-08-14T06:44:41.787Z,29.62
2023-08-14T06:47:45.852Z,30.02
2023-08-14T06:50:48.238Z,30.41
2023-08-14T06:53:50.646Z,30.65
2023-08-14T06:56:53.526Z,30.92
2023-08-14T06:59:55.955Z,31.19
2023-08-14T07:02:58.289Z,31.58
2023-08-14T07:06:00.641Z,32.11
2023-08-14T07:09:03.140Z,32.43
2023-08-14T07:12:05.801Z,32.80
2023-08-14T07:15:12.027Z,33.09
2023-08-14T07:18:19.482Z,33.42
2023-08-14T07:21:21.767Z,33.73
2023-08-14T07:24:25.478Z,34.09
2023-08-14T07:27:27.851Z,34.56
2023-08-14T07:30:30.119Z,34.97
2023-08-14T07:33:32.510Z,35.29
2023-08-14T07:36:37.523Z,35.59
2023-08-14T07:39:40.432Z,36.02
2023-08-14T07:42:42.770Z,36.40
2023-08-14T07:45:45.206Z,36.94
2023-08-14T07:48:47.567Z,37.38
2023-08-14T07:51:50.414Z,38.00
2023-08-14T07:54:52.775Z,38.57
2023-08-14T07:57:55.356Z,39.11
2023-08-14T08:00:57.645Z,39.51
2023-08-14T08:04:00.573Z,39.77
2023-08-14T08:07:05.825Z,40.10
2023-08-14T08:10:09.044Z,40.40
2023-08-14T08:13:11.362Z,40.72
2023-08-14T08:16:13.740Z,41.23
2023-08-14T08:19:16.428Z,41.44
2023-08-14T08:22:19.120Z,41.64
2023-08-14T08:25:21.832Z,41.87
2023-08-14T08:28:24.172Z,41.88
2023-08-14T08:31:26.642Z,42.02
2023-08-14T08:34:29.005Z,42.02
2023-08-14T08:37:31.325Z,41.81
2023-08-14T08:40:33.952Z,41.00
2023-08-14T08:43:36.449Z,38.50
2023-08-14T08:46:44.494Z,37.06
2023-08-14T08:49:47.397Z,36.09
2023-08-14T08:52:51.713Z,35.44
2023-08-14T08:55:54.692Z,35.08
2023-08-14T08:58:57.016Z,34.75
2023-08-14T09:01:59.309Z,34.42
2023-08-14T09:05:01.882Z,33.64
2023-08-14T09:08:04.710Z,33.30
2023-08-14T09:11:07.356Z,33.14
2023-08-14T09:14:09.758Z,32.95
2023-08-14T09:17:14.072Z,32.82
2023-08-14T09:20:20.131Z,32.53
2023-08-14T09:23:35.891Z,32.31
2023-08-14T09:26:38.320Z,32.27
2023-08-14T09:29:40.715Z,32.09
2023-08-14T09:32:43.363Z,32.07
2023-08-14T09:35:53.508Z,31.88
2023-08-14T09:38:56.419Z,31.71
2023-08-14T09:41:59.127Z,31.60
2023-08-14T09:45:03.134Z,31.55
2023-08-14T09:48:06.023Z,31.46
2023-08-14T09:51:12.949Z,31.32
2023-08-14T09:54:15.219Z,31.16
2023-08-14T09:57:18.504Z,31.05
2023-08-14T10:00:21.008Z,30.99
2023-08-14T10:03:24.101Z,30.93
2023-08-14T10:06:27.222Z,30.85
2023-08-14T10:09:29.731Z,30.72
2023-08-14T10:12:36.988Z,30.62
2023-08-14T10:15:47.842Z,30.55
2023-08-14T10:18:51.073Z,30.51
2023-08-14T10:21:54.806Z,30.44
2023-08-14T10:24:57.210Z,30.41
2023-08-14T10:27:59.840Z,30.29
2023-08-14T10:31:02.884Z,30.22
2023-08-14T10:34:05.733Z,30.20
2023-08-14T10:37:07.991Z,30.15
2023-08-14T10:40:24.132Z,30.12
2023-08-14T10:43:27.678Z,30.13
2023-08-14T10:46:30.109Z,30.11
2023-08-14T10:49:46.181Z,30.04
2023-08-14T10:52:49.608Z,30.01
2023-08-14T10:55:52.629Z,30.00
2023-08-14T10:58:55.063Z,29.92
2023-08-14T11:02:27.288Z,29.91
2023-08-14T11:05:39.067Z,29.84
2023-08-14T11:08:46.057Z,29.86
2023-08-14T11:11:56.495Z,29.84
2023-08-14T11:14:58.931Z,29.75
2023-08-14T11:18:02.433Z,29.77
2023-08-14T11:21:23.595Z,29.70
2023-08-14T11:24:27.424Z,29.72
2023-08-14T11:27:29.897Z,29.65
2023-08-14T11:30:34.791Z,29.65
2023-08-14T11:33:37.393Z,29.53
2023-08-14T11:36:43.515Z,29.48
2023-08-14T11:39:46.148Z,29.51
2023-08-14T11:42:48.653Z,29.55
2023-08-14T11:45:51.093Z,29.50
2023-08-14T11:48:53.769Z,29.44
2023-08-14T11:51:56.200Z,29.43
2023-08-14T11:54:59.166Z,29.41
2023-08-14T11:58:01.760Z,29.41
2023-08-14T12:01:04.517Z,29.42
2023-08-14T12:04:08.254Z,29.39
2023-08-14T12:07:10.953Z,29.41
2023-08-14T12:10:16.284Z,29.43
2023-08-14T12:13:21.351Z,29.36
2023-08-14T12:16:26.181Z,29.39
2023-08-14T12:19:31.165Z,29.37
2023-08-14T12:22:33.475Z,29.36
2023-08-14T12:25:35.717Z,29.36
2023-08-14T12:28:37.884Z,29.40
2023-08-14T12:31:40.572Z,29.37
2023-08-14T12:34:43.074Z,29.40
2023-08-14T12:37:45.334Z,29.37
2023-08-14T12:40:47.667Z,29.32
2023-08-14T12:43:50.124Z,29.30
2023-08-14T12:46:54.766Z,29.30
2023-08-14T12:49:58.233Z,29.25
2023-08-14T12:53:00.544Z,29.27
2023-08-14T12:56:03.915Z,29.23
2023-08-14T12:59:07.977Z,29.21
2023-08-14T13:02:10.328Z,29.19
2023-08-14T13:05:12.691Z,29.15
2023-08-14T13:08:15.034Z,29.15
2023-08-14T13:11:19.422Z,29.16
2023-08-14T13:14:21.739Z,29.20
2023-08-14T13:17:24.253Z,29.26
2023-08-14T13:20:26.618Z,29.28
2023-08-14T13:23:29.024Z,29.27
2023-08-14T13:26:34.129Z,29.29
2023-08-14T13:29:38.574Z,29.26
2023-08-14T13:32:41.414Z,29.24
2023-08-14T13:35:44.228Z,29.23
2023-08-14T13:38:46.525Z,29.31
2023-08-14T13:41:48.692Z,29.29
2023-08-14T13:44:51.457Z,29.30
2023-08-14T13:47:56.373Z,29.27
2023-08-14T13:50:59.488Z,29.20
2023-08-14T13:54:01.963Z,29.21
2023-08-14T13:57:04.298Z,29.21
2023-08-14T14:00:07.289Z,29.25
2023-08-14T14:03:11.103Z,29.21
2023-08-14T14:06:13.514Z,29.22
2023-08-14T14:09:15.665Z,29.27
2023-08-14T14:12:17.970Z,29.30
2023-08-14T14:15:20.401Z,29.32
2023-08-14T14:18:22.696Z,29.36
2023-08-14T14:21:24.868Z,29.29
2023-08-14T14:24:27.766Z,29.29
2023-08-14T14:27:30.043Z,29.27
2023-08-14T14:30:32.245Z,29.25
2023-08-14T14:33:34.553Z,29.28
2023-08-14T14:36:36.980Z,29.33
2023-08-14T14:39:39.316Z,29.31
2023-08-14T14:42:41.563Z,29.28
2023-08-14T14:45:43.754Z,29.27
2023-08-14T14:48:45.978Z,29.26
2023-08-14T14:51:48.810Z,29.27
2023-08-14T14:54:51.141Z,29.30
2023-08-14T14:57:53.316Z,29.33
2023-08-14T15:00:55.527Z,29.31
2023-08-14T15:03:57.941Z,29.34
2023-08-14T15:07:00.235Z,29.34
2023-08-14T15:10:02.318Z,29.40
2023-08-14T15:13:04.583Z,29.47
2023-08-14T15:16:06.930Z,29.46
2023-08-14T15:19:09.134Z,29.43
2023-08-14T15:22:11.274Z,29.43
2023-08-14T15:25:13.683Z,29.45
2023-08-14T15:28:16.021Z,29.38
2023-08-14T15:31:18.194Z,29.35
2023-08-14T15:34:20.359Z,29.33
2023-08-14T15:37:22.672Z,29.34
2023-08-14T15:40:25.686Z,29.30
2023-08-14T15:43:28.050Z,29.30
2023-08-14T15:46:30.237Z,29.31
2023-08-14T15:49:32.421Z,29.30
2023-08-14T15:52:34.511Z,29.30
2023-08-14T15:55:39.842Z,29.26
2023-08-14T15:58:42.098Z,29.26
2023-08-14T16:01:44.214Z,29.27
2023-08-14T16:04:46.694Z,29.30
2023-08-14T16:07:48.972Z,29.25
2023-08-14T16:10:51.105Z,29.24
2023-08-14T16:13:53.234Z,29.20
2023-08-14T16:16:55.596Z,29.25
2023-08-14T16:19:57.956Z,29.29
2023-08-14T16:23:00.253Z,29.28
2023-08-14T16:26:02.407Z,29.26
2023-08-14T16:29:04.928Z,29.24
2023-08-14T16:32:07.267Z,29.25
2023-08-14T16:35:09.529Z,29.20
2023-08-14T16:38:11.828Z,29.22
2023-08-14T16:41:14.081Z,29.21
2023-08-14T16:44:16.228Z,29.25
2023-08-14T16:47:18.776Z,29.21
2023-08-14T16:50:21.299Z,29.15
2023-08-14T16:53:23.434Z,29.13
2023-08-14T16:56:25.582Z,29.19
2023-08-14T16:59:27.859Z,29.16
2023-08-14T17:02:30.062Z,29.09
2023-08-14T17:05:32.948Z,29.09
2023-08-14T17:08:37.062Z,29.05
2023-08-14T17:11:40.632Z,29.10
2023-08-14T17:14:45.201Z,29.08
2023-08-14T17:17:47.618Z,29.05
2023-08-14T17:20:49.913Z,29.03
2023-08-14T17:23:52.047Z,29.00
2023-08-14T17:26:54.238Z,29.03
2023-08-14T17:29:56.589Z,28.98
2023-08-14T17:32:59.011Z,28.94
2023-08-14T17:36:01.231Z,28.95
2023-08-14T17:39:04.565Z,28.95
2023-08-14T17:42:06.743Z,28.91
2023-08-14T17:45:09.031Z,28.84
2023-08-14T17:48:11.345Z,28.84
2023-08-14T17:51:13.621Z,28.85
2023-08-14T17:54:15.922Z,28.82
2023-08-14T17:57:18.020Z,28.77
2023-08-14T18:00:20.230Z,28.74
2023-08-14T18:03:22.596Z,28.72
2023-08-14T18:06:25.445Z,28.73
2023-08-14T18:09:27.682Z,28.72
2023-08-14T18:12:29.892Z,28.67
2023-08-14T18:15:32.115Z,28.66
2023-08-14T18:18:34.386Z,28.62
2023-08-14T18:21:37.025Z,28.57
2023-08-14T18:24:39.276Z,28.56
2023-08-14T18:27:41.493Z,28.53
2023-08-14T18:30:43.804Z,28.50
2023-08-14T18:33:45.914Z,28.46
2023-08-14T18:36:48.162Z,28.44
2023-08-14T18:39:50.352Z,28.37
2023-08-14T18:42:52.524Z,28.32
2023-08-14T18:45:54.989Z,28.25
2023-08-14T18:48:57.340Z,28.15
2023-08-14T18:51:59.542Z,28.08
2023-08-14T18:55:04.768Z,28.00
2023-08-14T18:58:07.593Z,27.96
2023-08-14T19:01:09.977Z,27.90
2023-08-14T19:04:12.478Z,27.87
2023-08-14T19:07:14.904Z,27.83
2023-08-14T19:10:17.091Z,27.74
2023-08-14T19:13:19.235Z,27.70
2023-08-14T19:16:21.444Z,27.67
2023-08-14T19:19:23.624Z,27.64
2023-08-14T19:22:25.984Z,27.60
2023-08-14T19:25:28.224Z,27.58
2023-08-14T19:28:30.366Z,27.54
2023-08-14T19:31:32.749Z,27.50
2023-08-14T19:34:35.043Z,27.46
2023-08-14T19:37:37.315Z,27.41
2023-08-14T19:40:39.598Z,27.38
2023-08-14T19:43:41.846Z,27.34
2023-08-14T19:46:44.277Z,27.30
2023-08-14T19:49:46.823Z,27.27
2023-08-14T19:52:49.120Z,27.25
2023-08-14T19:55:51.454Z,27.23
2023-08-14T19:58:53.699Z,27.20
2023-08-14T20:01:57.496Z,27.11
2023-08-14T20:04:59.758Z,27.02
2023-08-14T20:08:01.992Z,26.92
2023-08-14T20:11:04.804Z,26.79
2023-08-14T20:14:08.727Z,26.69
2023-08-14T20:17:10.974Z,26.63
2023-08-14T20:20:20.436Z,26.54
2023-08-14T20:23:23.258Z,26.49
2023-08-14T20:26:25.541Z,26.40
2023-08-14T20:29:33.859Z,26.33
2023-08-14T20:32:36.564Z,26.25
2023-08-14T20:35:45.849Z,26.19
2023-08-14T20:38:48.734Z,26.13
2023-08-14T20:41:51.054Z,26.11
2023-08-14T20:44:53.307Z,26.07
2023-08-14T20:47:56.181Z,26.01
2023-08-14T20:51:01.066Z,25.97
2023-08-14T20:54:03.602Z,25.92
2023-08-14T20:57:05.892Z,25.87
2023-08-14T21:00:08.818Z,25.82
2023-08-14T21:03:16.125Z,25.80
2023-08-14T21:06:18.916Z,25.77
2023-08-14T21:09:21.609Z,25.76
2023-08-14T21:12:23.906Z,25.71
2023-08-14T21:15:26.346Z,25.68
2023-08-14T21:18:29.886Z,25.67
2023-08-14T21:21:32.273Z,25.68
2023-08-14T21:24:34.535Z,25.64
2023-08-14T21:27:36.795Z,25.60
2023-08-14T21:30:39.023Z,25.57
2023-08-14T21:33:41.264Z,25.55
2023-08-14T21:36:43.948Z,25.51
2023-08-14T21:39:46.214Z,25.50
2023-08-14T21:42:48.592Z,25.48
2023-08-14T21:45:50.863Z,25.47
2023-08-14T21:48:53.182Z,25.45
2023-08-14T21:51:55.549Z,25.43
2023-08-14T21:54:58.235Z,25.42
2023-08-14T21:58:00.521Z,25.42
2023-08-14T22:01:02.827Z,25.42
2023-08-14T22:04:05.357Z,25.44
2023-08-14T22:07:07.622Z,25.46
2023-08-14T22:10:11.135Z,25.41
2023-08-14T22:13:13.519Z,25.37
2023-08-14T22:16:15.775Z,25.38
2023-08-14T22:19:18.124Z,25.34
2023-08-14T22:22:20.447Z,25.27
2023-08-14T22:25:23.005Z,25.23
2023-08-14T22:28:25.401Z,25.23
2023-08-14T22:31:27.710Z,25.22
2023-08-14T22:34:29.997Z,25.20
2023-08-14T22:37:32.249Z,25.19
2023-08-14T22:40:34.539Z,25.16
2023-08-14T22:43:36.789Z,25.18
2023-08-14T22:46:39.017Z,25.18
2023-08-14T22:49:41.263Z,25.21
2023-08-14T22:52:43.530Z,25.20
2023-08-14T22:55:48.399Z,25.19
2023-08-14T22:58:50.690Z,25.16
2023-08-14T23:01:52.982Z,25.14
2023-08-14T23:04:55.239Z,25.14
2023-08-14T23:07:57.545Z,25.11
2023-08-14T23:10:59.770Z,25.11
2023-08-14T23:14:02.001Z,25.14
2023-08-14T23:17:04.465Z,25.13
2023-08-14T23:20:06.966Z,25.11
2023-08-14T23:23:09.174Z,25.08
2023-08-14T23:26:11.539Z,25.05
2023-08-14T23:29:14.172Z,25.02
2023-08-14T23:32:16.318Z,25.00
2023-08-14T23:35:18.702Z,24.92
2023-08-14T23:38:21.021Z,24.88
2023-08-14T23:41:23.270Z,24.87
2023-08-14T23:44:25.641Z,24.83
2023-08-14T23:47:27.925Z,24.76
2023-08-14T23:50:30.139Z,24.77
2023-08-14T23:53:32.569Z,24.70
2023-08-14T23:56:34.853Z,24.70
2023-08-14T23:59:37.111Z,24.71
